Time;durP1;ratioP1;P1;durP2;ratioP2;P2;SDS_P1;SDS_P2;PMS_P1;PMS_P2;Temp;Humidity;BMP_temperature;BMP_pressure;BME280_temperature;BME280_humidity;BME280_pressure;Samples;Min_cycle;Max_cycle;Signal;HPM_P1;HPM_P2
2022/11/09 00:01:37;;;;;;;22.17;15.40;;;;;;;8.12;84.19;100352.59;1680422;85;21973;-77
2022/11/09 00:04:06;;;;;;;23.90;15.87;;;;;;;8.12;84.24;100357.81;1680574;85;21038;-77
2022/11/09 00:06:34;;;;;;;21.10;15.03;;;;;;;8.12;84.25;100352.59;1680345;85;21053;-78
2022/11/09 00:09:04;;;;;;;23.33;14.73;;;;;;;8.11;84.21;100348.70;1660415;85;21033;-78
2022/11/09 00:11:31;;;;;;;22.55;15.35;;;;;;;8.07;84.08;100355.78;1680559;85;21050;-80
2022/11/09 00:13:58;;;;;;;26.90;16.23;;;;;;;8.04;84.04;100351.95;1677605;85;21124;-79
2022/11/09 00:16:25;;;;;;;27.00;16.07;;;;;;;8.00;84.17;100345.08;1699551;83;21030;-77
2022/11/09 00:18:52;;;;;;;22.40;14.27;;;;;;;7.98;84.22;100342.95;1670157;85;21465;-77
2022/11/09 00:21:22;;;;;;;22.03;13.90;;;;;;;7.95;84.26;100340.43;1670017;85;21055;-77
2022/11/09 00:23:50;;;;;;;21.55;14.47;;;;;;;7.92;84.27;100337.45;1670284;85;20999;-77
2022/11/09 00:26:19;;;;;;;23.70;14.10;;;;;;;7.90;84.26;100343.61;1669964;85;21140;-77
2022/11/09 00:28:47;;;;;;;22.23;15.27;;;;;;;7.85;84.25;100335.08;1670065;85;21467;-77
2022/11/09 00:31:19;;;;;;;23.93;15.10;;;;;;;7.82;84.39;100338.63;1669970;85;21001;-77
2022/11/09 00:33:55;;;;;;;26.10;14.90;;;;;;;7.80;84.49;100333.88;1670177;85;21020;-77
2022/11/09 00:36:25;;;;;;;24.07;14.87;;;;;;;7.79;84.61;100341.31;1670050;85;21031;-77
2022/11/09 00:38:56;;;;;;;22.70;14.50;;;;;;;7.77;84.74;100341.34;1670276;85;21965;-77
2022/11/09 00:41:24;;;;;;;23.97;15.77;;;;;;;7.77;84.81;100334.82;1669809;85;21493;-77
2022/11/09 00:43:52;;;;;;;22.80;14.77;;;;;;;7.77;84.91;100341.34;1670159;85;21023;-79
2022/11/09 00:46:20;;;;;;;25.20;15.23;;;;;;;7.81;85.16;100332.97;1669817;85;21023;-77
2022/11/09 00:48:49;;;;;;;23.25;14.83;;;;;;;7.85;85.22;100338.53;1670515;85;21012;-77
2022/11/09 00:51:17;;;;;;;23.20;14.17;;;;;;;7.89;85.43;100338.84;1669986;85;21826;-78
2022/11/09 00:53:47;;;;;;;21.80;14.70;;;;;;;7.92;85.44;100327.02;1670007;85;20989;-78
2022/11/09 00:56:14;;;;;;;22.57;14.13;;;;;;;7.95;85.41;100331.30;1669995;85;20984;-77
2022/11/09 00:58:41;;;;;;;23.50;14.07;;;;;;;7.99;85.46;100325.96;1669866;85;21528;-77
2022/11/09 01:01:14;;;;;;;24.10;15.40;;;;;;;8.05;85.58;100329.70;1670102;85;21035;-78
2022/11/09 01:03:44;;;;;;;21.90;13.90;;;;;;;8.11;85.70;100326.52;1670150;85;21087;-77
2022/11/09 01:06:18;;;;;;;20.63;13.60;;;;;;;8.21;85.77;100329.28;1669884;85;21011;-77
2022/11/09 01:08:46;;;;;;;21.33;14.03;;;;;;;8.29;85.91;100323.40;1654158;85;21455;-77
2022/11/09 01:11:17;;;;;;;22.57;14.17;;;;;;;8.39;85.85;100330.53;1699300;83;21042;-77
2022/11/09 01:13:44;;;;;;;21.77;13.60;;;;;;;8.44;85.71;100325.58;1669956;85;21046;-78
2022/11/09 01:16:16;;;;;;;21.70;14.23;;;;;;;8.50;85.67;100327.16;1669770;85;21157;-77
2022/11/09 01:18:43;;;;;;;23.47;14.53;;;;;;;8.54;85.44;100329.24;1670172;85;21060;-77
2022/11/09 01:21:12;;;;;;;25.43;14.20;;;;;;;8.56;85.33;100326.96;1669818;85;21000;-77
2022/11/09 01:23:41;;;;;;;19.77;13.15;;;;;;;8.57;85.29;100326.54;1670277;85;20996;-77
2022/11/09 01:26:11;;;;;;;21.73;14.07;;;;;;;8.59;85.21;100319.48;1669856;85;21330;-77
2022/11/09 01:28:39;;;;;;;23.30;14.10;;;;;;;8.60;85.18;100323.83;1670520;85;22001;-77
2022/11/09 01:31:11;;;;;;;21.03;13.70;;;;;;;8.61;85.10;100322.91;1669745;85;21996;-77
2022/11/09 01:33:39;;;;;;;21.73;14.00;;;;;;;8.60;85.03;100325.14;1670107;85;21016;-80
2022/11/09 01:36:10;;;;;;;22.53;14.37;;;;;;;8.60;85.03;100322.52;1670027;85;21000;-80
2022/11/09 01:38:38;;;;;;;22.07;14.10;;;;;;;8.60;84.95;100320.77;1668872;85;20987;-77
2022/11/09 01:41:10;;;;;;;22.10;13.67;;;;;;;8.58;84.93;100319.09;1670090;85;21140;-77
2022/11/09 01:43:37;;;;;;;18.73;12.68;;;;;;;8.57;84.92;100313.48;1670219;85;21755;-78
2022/11/09 01:46:22;;;;;;;22.10;13.87;;;;;;;8.56;85.04;100315.20;1669721;85;21082;-77
2022/11/09 01:48:54;;;;;;;23.07;13.80;;;;;;;8.57;84.94;100301.72;1699976;84;20933;-77
2022/11/09 01:51:27;;;;;;;21.63;13.77;;;;;;;8.55;84.92;100314.81;1669818;85;21039;-77
2022/11/09 01:54:05;;;;;;;20.60;14.63;;;;;;;8.55;84.93;100315.27;1669779;85;21109;-77
2022/11/09 01:56:32;;;;;;;19.30;13.13;;;;;;;8.52;84.88;100310.98;1669814;85;21051;-77
2022/11/09 01:59:08;;;;;;;20.43;13.73;;;;;;;8.50;84.94;100306.25;1669904;85;21047;-78
2022/11/09 02:01:35;;;;;;;20.10;13.40;;;;;;;8.49;84.95;100309.33;1669838;85;21473;-79
2022/11/09 02:04:22;;;;;;;20.77;14.50;;;;;;;8.46;85.05;100315.95;1684079;84;21320;-77
2022/11/09 02:06:56;;;;;;;22.27;13.47;;;;;;;8.45;84.96;100316.86;1700082;84;21120;-77
2022/11/09 02:09:52;;;;;;;20.83;13.77;;;;;;;8.43;84.96;100308.20;1682536;84;21032;-79
2022/11/09 02:12:21;;;;;;;20.70;12.33;;;;;;;8.40;84.98;100305.69;1699506;84;21008;-77
2022/11/09 02:14:52;;;;;;;21.93;14.37;;;;;;;8.38;85.11;100314.44;1698124;84;20928;-78
2022/11/09 02:17:20;;;;;;;18.77;13.30;;;;;;;8.36;85.17;100316.23;1697966;84;21096;-77
2022/11/09 02:19:49;;;;;;;22.73;13.93;;;;;;;8.33;85.20;100314.56;1698178;84;21198;-79
2022/11/09 02:22:16;;;;;;;22.83;14.53;;;;;;;8.32;85.28;100310.25;1697976;84;20980;-77
2022/11/09 02:24:43;;;;;;;20.30;13.67;;;;;;;8.31;85.21;100307.67;1697877;84;21016;-77
2022/11/09 02:27:10;;;;;;;23.37;13.80;;;;;;;8.30;85.34;100312.03;1698092;84;21039;-77
2022/11/09 02:29:43;;;;;;;20.17;13.60;;;;;;;8.28;85.38;100307.30;1698080;84;21027;-77
2022/11/09 02:32:24;;;;;;;24.63;14.80;;;;;;;8.29;85.51;100312.10;1697942;84;21304;-77
2022/11/09 02:34:52;;;;;;;20.83;13.40;;;;;;;8.29;85.53;100307.73;1697991;84;21016;-77
2022/11/09 02:37:43;;;;;;;22.33;14.93;;;;;;;8.29;85.65;100304.27;1698282;84;21000;-77
2022/11/09 02:40:22;;;;;;;21.57;14.30;;;;;;;8.31;85.78;100310.27;1697987;84;20996;-77
2022/11/09 02:42:49;;;;;;;25.93;15.23;;;;;;;8.32;85.73;100310.25;1698139;84;21000;-77
2022/11/09 02:45:16;;;;;;;21.37;13.87;;;;;;;8.32;85.77;100309.39;1698005;84;21077;-77
2022/11/09 02:47:43;;;;;;;21.63;14.17;;;;;;;8.31;85.80;100312.44;1698084;84;21533;-77
2022/11/09 02:50:10;;;;;;;21.37;14.90;;;;;;;8.32;85.87;100310.25;1697825;84;21018;-77
2022/11/09 02:52:37;;;;;;;23.67;13.73;;;;;;;8.32;85.79;100308.09;1698189;84;21008;-77
2022/11/09 02:55:05;;;;;;;24.13;15.80;;;;;;;8.28;85.68;100309.91;1697938;84;21017;-77
2022/11/09 02:57:33;;;;;;;20.87;14.50;;;;;;;8.25;85.52;100310.00;1698184;84;21110;-79
2022/11/09 03:00:01;;;;;;;21.13;14.43;;;;;;;8.19;85.40;100305.81;1697951;84;21000;-78
2022/11/09 03:02:30;;;;;;;20.53;14.00;;;;;;;8.15;85.56;100318.56;1698316;84;21041;-81
2022/11/09 03:04:57;;;;;;;20.90;13.80;;;;;;;8.11;85.55;100316.92;1698024;84;20988;-77
2022/11/09 03:07:25;;;;;;;20.73;13.90;;;;;;;8.07;85.51;100317.92;1695370;84;21179;-80
2022/11/09 03:09:53;;;;;;;22.70;14.47;;;;;;;8.00;85.46;100317.67;1683958;84;21133;-77
2022/11/09 03:12:30;;;;;;;22.60;14.60;;;;;;;7.94;85.53;100320.46;1697857;84;20993;-77
2022/11/09 03:15:08;;;;;;;23.40;14.10;;;;;;;7.88;85.57;100315.42;1699171;84;21059;-77
2022/11/09 03:17:35;;;;;;;24.72;14.30;;;;;;;7.85;85.81;100320.73;1699708;84;21430;-77
2022/11/09 03:20:03;;;;;;;24.60;14.93;;;;;;;7.82;85.99;100320.36;1699824;84;21260;-77
2022/11/09 03:22:30;;;;;;;24.40;15.13;;;;;;;7.79;86.09;100318.68;1699551;84;21146;-79
2022/11/09 03:24:58;;;;;;;24.93;15.23;;;;;;;7.79;86.26;100323.05;1699862;84;20980;-77
2022/11/09 03:27:25;;;;;;;25.37;15.40;;;;;;;7.77;86.35;100323.08;1699549;84;20989;-77
2022/11/09 03:29:52;;;;;;;23.97;15.17;;;;;;;7.78;86.53;100325.23;1699840;84;21043;-77
2022/11/09 03:32:20;;;;;;;24.83;15.47;;;;;;;7.78;86.64;100325.23;1699570;84;21007;-77
2022/11/09 03:34:48;;;;;;;24.90;16.07;;;;;;;7.78;86.63;100324.78;1699851;84;21111;-77
2022/11/09 03:37:15;;;;;;;26.37;15.90;;;;;;;7.78;86.69;100322.17;1699468;84;21016;-77
2022/11/09 03:39:43;;;;;;;24.90;16.40;;;;;;;7.77;86.74;100319.62;1699947;84;21024;-77
2022/11/09 03:42:10;;;;;;;26.00;15.53;;;;;;;7.78;86.85;100321.31;1699569;84;21458;-77
2022/11/09 03:44:37;;;;;;;23.70;15.17;;;;;;;7.78;86.95;100318.71;1699931;84;21031;-78
2022/11/09 03:47:04;;;;;;;24.47;16.70;;;;;;;7.78;87.01;100316.95;1699538;84;21142;-78
2022/11/09 03:49:31;;;;;;;25.73;16.37;;;;;;;7.78;87.01;100316.10;1701005;83;21026;-80
2022/11/09 03:51:58;;;;;;;21.57;15.73;;;;;;;7.77;87.11;100317.01;1716746;83;21050;-78
2022/11/09 03:54:25;;;;;;;23.97;15.43;;;;;;;7.77;87.14;100313.95;1717471;82;21030;-77
2022/11/09 03:56:52;;;;;;;23.47;15.23;;;;;;;7.76;87.20;100313.55;1717309;82;21034;-78
2022/11/09 03:59:19;;;;;;;24.13;15.53;;;;;;;7.76;87.26;100310.06;1717584;82;21122;-77
2022/11/09 04:01:47;;;;;;;28.17;16.10;;;;;;;7.74;87.35;100303.59;1717164;82;21559;-77
2022/11/09 04:04:14;;;;;;;25.87;15.50;;;;;;;7.73;87.40;100299.28;1717582;82;21003;-79
2022/11/09 04:06:41;;;;;;;20.97;14.90;;;;;;;7.75;87.51;100300.08;1717301;82;21066;-77
2022/11/09 04:09:09;;;;;;;24.53;15.77;;;;;;;7.74;87.54;100303.59;1717531;82;21536;-77
2022/11/09 04:11:36;;;;;;;23.43;15.43;;;;;;;7.74;87.67;100297.07;1717266;82;21209;-77
2022/11/09 04:14:03;;;;;;;22.93;15.30;;;;;;;7.74;87.72;100297.53;1717234;83;21462;-77
2022/11/09 04:16:32;;;;;;;22.97;15.80;;;;;;;7.73;87.78;100293.19;1717660;82;21082;-77
2022/11/09 04:18:59;;;;;;;23.70;16.30;;;;;;;7.74;87.88;100294.92;1717546;82;21070;-77
2022/11/09 04:21:26;;;;;;;23.20;16.07;;;;;;;7.75;87.94;100287.03;1717636;82;20999;-77
2022/11/09 04:23:53;;;;;;;25.67;16.47;;;;;;;7.73;87.96;100290.16;1717533;82;21095;-77
2022/11/09 04:26:19;;;;;;;25.37;17.03;;;;;;;7.72;88.00;100283.66;1717438;82;20991;-77
2022/11/09 04:28:46;;;;;;;26.97;16.13;;;;;;;7.72;88.08;100281.05;1717807;82;21049;-77
2022/11/09 04:31:14;;;;;;;24.63;15.83;;;;;;;7.71;88.10;100280.20;1717526;82;21063;-77
2022/11/09 04:33:40;;;;;;;25.37;15.93;;;;;;;7.70;88.18;100279.77;1717865;82;21516;-78
2022/11/09 04:36:08;;;;;;;30.03;16.87;;;;;;;7.69;88.21;100282.44;1717561;82;21957;-77
2022/11/09 04:38:35;;;;;;;27.33;16.53;;;;;;;7.68;88.21;100284.20;1717685;82;21481;-79
2022/11/09 04:41:04;;;;;;;26.17;16.70;;;;;;;7.65;88.29;100286.89;1717580;82;21043;-77
2022/11/09 04:43:31;;;;;;;28.20;17.33;;;;;;;7.64;88.33;100291.69;1717821;82;21524;-77
2022/11/09 04:46:03;;;;;;;25.63;17.30;;;;;;;7.64;88.37;100280.41;1717492;82;22138;-77
2022/11/09 04:48:31;;;;;;;26.37;16.67;;;;;;;7.60;88.42;100283.55;1717764;82;21113;-77
2022/11/09 04:51:06;;;;;;;26.87;17.23;;;;;;;7.62;88.56;100285.67;1717478;82;21002;-77
2022/11/09 04:53:34;;;;;;;28.53;17.30;;;;;;;7.62;88.56;100284.80;1717684;82;21027;-77
2022/11/09 04:56:01;;;;;;;27.87;17.63;;;;;;;7.60;88.63;100287.00;1717602;82;21010;-77
2022/11/09 04:58:28;;;;;;;30.80;18.17;;;;;;;7.59;88.73;100281.81;1717812;82;21018;-77
2022/11/09 05:01:09;;;;;;;27.73;17.50;;;;;;;7.58;88.81;100282.27;1717784;82;21114;-77
2022/11/09 05:03:36;;;;;;;30.27;17.62;;;;;;;7.58;88.85;100286.64;1717451;82;21047;-81
2022/11/09 05:06:30;;;;;;;31.10;17.93;;;;;;;7.57;88.92;100285.79;1717748;82;21034;-78
2022/11/09 05:08:33;;;;;;;26.95;18.02;;;;;;;7.56;88.97;100287.12;1714356;82;21023;-77
2022/11/09 05:11:00;;;;;;;27.50;17.97;;;;;;;7.55;89.01;100286.27;1717579;82;21261;-77
2022/11/09 05:13:28;;;;;;;28.27;17.33;;;;;;;7.54;89.04;100288.48;1717740;82;21128;-77
2022/11/09 05:15:55;;;;;;;31.63;18.37;;;;;;;7.54;89.30;100279.35;1717429;82;21521;-77
2022/11/09 05:18:22;;;;;;;28.33;17.57;;;;;;;7.54;89.26;100279.80;1717641;82;21068;-77
2022/11/09 05:20:49;;;;;;;32.00;18.90;;;;;;;7.56;89.40;100279.30;1717542;82;21047;-77
2022/11/09 05:26:01;;;;;;;30.30;17.13;;;;;;;7.58;89.41;100273.59;1717585;82;21138;-77
2022/11/09 05:28:28;;;;;;;30.23;18.47;;;;;;;7.57;89.42;100279.72;1717386;82;21026;-77
2022/11/09 05:30:55;;;;;;;25.30;17.20;;;;;;;7.55;89.39;100274.53;1717754;82;21034;-80
2022/11/09 05:33:22;;;;;;;28.53;18.40;;;;;;;7.56;89.48;100274.08;1717375;82;21538;-77
2022/11/09 05:35:49;;;;;;;33.70;19.67;;;;;;;7.59;89.77;100274.87;1717735;82;21063;-78
2022/11/09 05:38:16;;;;;;;31.77;18.87;;;;;;;7.64;90.00;100273.88;1717586;82;21235;-80
2022/11/09 05:40:43;;;;;;;31.23;19.80;;;;;;;7.68;90.04;100271.61;1717607;82;21047;-78
2022/11/09 05:43:10;;;;;;;32.00;19.03;;;;;;;7.71;90.08;100272.83;1717765;82;21098;-79
2022/11/09 05:45:37;;;;;;;31.20;19.23;;;;;;;7.77;90.25;100266.98;1717521;82;21471;-78
2022/11/09 05:48:05;;;;;;;31.77;19.03;;;;;;;7.83;90.28;100271.17;1717667;82;21110;-77
2022/11/09 05:50:32;;;;;;;30.50;18.60;;;;;;;7.87;90.07;100268.02;1717553;82;21946;-77
2022/11/09 05:53:11;;;;;;;29.57;18.83;;;;;;;7.87;89.94;100267.59;1694614;83;21043;-77
2022/11/09 05:55:39;;;;;;;31.33;19.83;;;;;;;7.87;89.82;100264.98;1717428;82;21006;-78
2022/11/09 05:58:06;;;;;;;27.77;18.17;;;;;;;7.89;89.90;100268.84;1717739;82;20999;-77
2022/11/09 06:00:34;;;;;;;30.73;19.43;;;;;;;7.91;90.05;100269.20;1717640;82;21007;-77
2022/11/09 06:03:07;;;;;;;29.50;19.47;;;;;;;7.95;90.14;100263.44;1717741;82;21103;-77
2022/11/09 06:05:36;;;;;;;28.10;17.80;;;;;;;7.99;90.16;100263.77;1717484;82;21473;-77
2022/11/09 06:08:06;;;;;;;30.83;19.03;;;;;;;8.03;90.25;100267.54;1717633;82;21035;-77
2022/11/09 06:10:33;;;;;;;30.82;20.10;;;;;;;8.09;90.25;100276.09;1717733;82;21015;-77
2022/11/09 06:13:01;;;;;;;31.27;19.67;;;;;;;8.12;90.27;100275.58;1717844;82;21034;-77
2022/11/09 06:15:28;;;;;;;32.30;19.27;;;;;;;8.17;90.28;100268.90;1717349;82;21138;-80
2022/11/09 06:17:57;;;;;;;30.43;19.47;;;;;;;8.20;90.23;100264.47;1717500;82;21019;-77
2022/11/09 06:20:27;;;;;;;33.07;19.90;;;;;;;8.25;90.32;100273.45;1717424;82;21090;-77
2022/11/09 06:22:56;;;;;;;29.07;19.15;;;;;;;8.29;90.17;100272.48;1719594;82;21464;-76
2022/11/09 06:25:23;;;;;;;30.35;18.98;;;;;;;8.32;90.07;100278.06;1722739;82;21065;-78
2022/11/09 06:27:55;;;;;;;32.00;19.97;;;;;;;8.34;90.02;100282.34;1722308;82;21136;-79
2022/11/09 06:30:22;;;;;;;30.83;19.20;;;;;;;8.40;90.17;100290.02;1721524;82;21027;-80
2022/11/09 06:32:49;;;;;;;32.17;20.30;;;;;;;8.45;90.21;100290.74;1722350;82;21447;-78
2022/11/09 06:35:16;;;;;;;32.70;19.00;;;;;;;8.53;90.18;100291.79;1722401;82;21053;-78
2022/11/09 06:37:43;;;;;;;28.30;18.50;;;;;;;8.61;90.23;100289.80;1722458;82;21021;-77
2022/11/09 06:40:12;;;;;;;28.63;18.43;;;;;;;8.67;90.11;100281.80;1719997;82;21146;-77
2022/11/09 06:42:39;;;;;;;31.27;18.73;;;;;;;8.73;90.03;100289.89;1718546;82;21014;-79
2022/11/09 06:45:07;;;;;;;30.80;19.43;;;;;;;8.80;89.83;100277.48;1722432;82;21599;-77
2022/11/09 06:47:34;;;;;;;27.40;18.17;;;;;;;8.83;89.61;100281.30;1722223;82;21507;-78
2022/11/09 06:50:01;;;;;;;27.57;19.20;;;;;;;8.83;89.48;100286.07;1722333;82;21010;-78
2022/11/09 06:52:28;;;;;;;29.17;18.70;;;;;;;8.87;89.43;100287.70;1695123;82;21143;-77
2022/11/09 06:54:55;;;;;;;30.57;19.37;;;;;;;8.91;89.55;100289.30;1722623;82;21022;-77
2022/11/09 06:57:21;;;;;;;29.67;19.07;;;;;;;8.98;89.48;100285.17;1722402;82;21069;-77
2022/11/09 06:59:48;;;;;;;30.13;19.27;;;;;;;9.04;89.48;100292.84;1722559;82;21542;-77
2022/11/09 07:02:17;;;;;;;28.17;19.53;;;;;;;9.12;89.58;100294.76;1722664;82;21022;-76
2022/11/09 07:04:43;;;;;;;27.07;17.73;;;;;;;9.20;89.54;100296.67;1722440;82;21142;-78
2022/11/09 07:07:11;;;;;;;28.60;18.73;;;;;;;9.29;89.50;100298.13;1722547;82;21018;-76
2022/11/09 07:09:37;;;;;;;26.87;18.13;;;;;;;9.35;89.40;100292.22;1720316;82;21065;-76
2022/11/09 07:12:05;;;;;;;29.80;18.73;;;;;;;9.42;89.36;100292.85;1722307;82;21022;-77
2022/11/09 07:14:32;;;;;;;31.27;19.20;;;;;;;9.51;89.30;100291.71;1722596;82;21581;-76
2022/11/09 07:16:59;;;;;;;26.17;17.43;;;;;;;9.60;89.21;100297.92;1693882;84;21066;-79
2022/11/09 07:19:28;;;;;;;27.37;18.77;;;;;;;9.69;89.12;100303.29;1693606;84;21545;-81
2022/11/09 07:21:56;;;;;;;27.60;18.87;;;;;;;9.75;88.99;100294.75;1693688;84;21004;-79
2022/11/09 07:24:23;;;;;;;27.43;18.80;;;;;;;9.81;88.85;100295.88;1693869;84;21016;-78
2022/11/09 07:26:50;;;;;;;27.37;18.15;;;;;;;9.88;88.69;100300.42;1693755;84;20996;-83
2022/11/09 07:29:17;;;;;;;29.73;19.23;;;;;;;9.94;88.67;100292.80;1693813;84;21130;-82
2022/11/09 07:31:44;;;;;;;27.87;17.53;;;;;;;9.99;88.49;100300.89;1693458;84;21505;-78
2022/11/09 07:34:11;;;;;;;33.03;19.33;;;;;;;10.04;88.36;100309.89;1692077;84;21365;-80
2022/11/09 07:36:38;;;;;;;29.20;19.57;;;;;;;10.11;88.25;100313.13;1692740;84;21466;-79
2022/11/09 07:39:05;;;;;;;28.05;18.80;;;;;;;10.17;88.13;100299.81;1687702;84;21475;-78
2022/11/09 07:41:32;;;;;;;29.80;19.00;;;;;;;10.23;88.00;100305.69;1690612;84;21907;-78
2022/11/09 07:43:59;;;;;;;28.15;18.15;;;;;;;10.28;87.79;100304.22;1689205;84;20982;-80
2022/11/09 07:46:26;;;;;;;30.10;18.15;;;;;;;10.33;87.67;100302.29;1691320;84;21464;-78
2022/11/09 07:48:53;;;;;;;26.85;17.70;;;;;;;10.37;87.49;100303.05;1718011;82;21056;-78
2022/11/09 07:51:20;;;;;;;29.42;19.85;;;;;;;10.40;87.32;100294.61;1693481;83;21054;-78
2022/11/09 07:53:46;;;;;;;27.77;18.73;;;;;;;10.44;87.14;100296.19;1682608;84;21144;-79
2022/11/09 07:56:13;;;;;;;28.20;18.62;;;;;;;10.51;87.08;100302.06;1718703;82;21424;-79
2022/11/09 07:58:40;;;;;;;28.60;18.73;;;;;;;10.57;87.01;100295.73;1722985;82;21272;-78
2022/11/09 08:01:10;;;;;;;26.40;17.55;;;;;;;10.63;87.07;100294.18;1690623;84;21008;-77
2022/11/09 08:03:37;;;;;;;28.52;19.05;;;;;;;10.69;86.94;100284.30;1720575;82;21069;-79
2022/11/09 08:06:04;;;;;;;27.97;18.53;;;;;;;10.77;86.93;100287.94;1690908;84;21916;-80
2022/11/09 08:08:31;;;;;;;31.00;19.90;;;;;;;10.86;86.90;100291.52;1689041;84;21009;-83
2022/11/09 08:10:58;;;;;;;26.05;18.32;;;;;;;10.91;86.70;100285.61;1674115;84;21050;-83
2022/11/09 08:13:25;;;;;;;26.57;17.55;;;;;;;10.96;86.59;100287.21;1716640;82;21396;-79
2022/11/09 08:15:52;;;;;;;29.70;19.02;;;;;;;11.02;86.51;100293.05;1715192;82;21492;-81
2022/11/09 08:18:20;;;;;;;27.45;18.60;;;;;;;11.06;86.41;100294.64;1715418;82;21140;-78
2022/11/09 08:20:48;;;;;;;28.25;18.77;;;;;;;11.08;86.22;100289.32;1715080;82;21511;-81
2022/11/09 08:23:18;;;;;;;27.10;19.07;;;;;;;11.12;86.21;100297.48;1716051;82;21714;-80
2022/11/09 08:25:44;;;;;;;31.62;18.70;;;;;;;11.14;86.17;100296.93;1714483;82;21529;-81
2022/11/09 08:28:12;;;;;;;28.98;18.30;;;;;;;11.19;86.19;100299.38;1715217;82;21320;-79
2022/11/09 08:30:39;;;;;;;26.70;18.45;;;;;;;11.23;86.01;100294.41;1715273;82;21484;-79
2022/11/09 08:33:06;;;;;;;27.62;18.32;;;;;;;11.26;85.94;100292.97;1715242;82;21081;-80
2022/11/09 08:35:33;;;;;;;27.80;19.25;;;;;;;11.29;85.91;100302.88;1715785;82;21090;-80
2022/11/09 08:38:03;;;;;;;27.42;18.57;;;;;;;11.33;85.77;100301.84;1714957;82;21317;-80
2022/11/09 08:40:31;;;;;;;25.37;18.45;;;;;;;11.38;85.73;100298.55;1715786;82;21082;-79
2022/11/09 08:43:05;;;;;;;25.60;17.98;;;;;;;11.46;85.60;100302.16;1721049;82;21635;-81
2022/11/09 08:45:34;;;;;;;25.55;17.73;;;;;;;11.56;85.56;100302.64;1718566;82;20994;-80
2022/11/09 08:48:02;;;;;;;25.08;18.12;;;;;;;11.66;85.54;100294.75;1715415;82;21098;-80
2022/11/09 08:50:32;;;;;;;27.17;18.25;;;;;;;11.78;85.44;100297.32;1715642;82;21437;-80
2022/11/09 08:53:00;;;;;;;27.48;18.27;;;;;;;11.87;85.18;100296.09;1715505;82;21958;-78
2022/11/09 08:55:28;;;;;;;23.73;17.87;;;;;;;11.94;85.00;100289.16;1715282;82;21117;-77
2022/11/09 08:57:57;;;;;;;26.07;17.73;;;;;;;12.00;84.79;100298.11;1715725;82;21050;-79
2022/11/09 09:00:25;;;;;;;22.32;17.02;;;;;;;12.10;84.68;100300.31;1722516;82;21115;-77
2022/11/09 09:02:52;;;;;;;23.32;17.67;;;;;;;12.17;84.49;100298.66;1721950;82;21067;-80
2022/11/09 09:05:20;;;;;;;24.37;17.62;;;;;;;12.25;84.29;100304.42;1719839;82;21053;-81
2022/11/09 09:07:46;;;;;;;25.00;16.95;;;;;;;12.34;84.00;100311.50;1718219;82;21134;-79
2022/11/09 09:10:13;;;;;;;25.48;16.32;;;;;;;12.42;83.79;100310.22;1716040;82;21465;-82
2022/11/09 09:12:41;;;;;;;21.23;16.20;;;;;;;12.49;83.69;100314.25;1719442;82;21303;-82
2022/11/09 09:15:09;;;;;;;23.30;16.40;;;;;;;12.59;83.52;100317.33;1718381;82;21035;-83
2022/11/09 09:17:35;;;;;;;22.82;16.95;;;;;;;12.66;83.34;100317.41;1692624;83;21576;-83
2022/11/09 09:20:04;;;;;;;20.90;16.12;;;;;;;12.74;83.07;100321.00;1718378;82;21725;-85
2022/11/09 09:22:32;;;;;;;25.50;17.02;;;;;;;12.78;82.82;100317.31;1721255;82;21084;-83
2022/11/09 09:24:59;;;;;;;27.02;17.23;;;;;;;12.83;82.67;100321.91;1721292;82;21030;-85
2022/11/09 09:27:28;;;;;;;22.10;16.62;;;;;;;12.88;82.39;100324.30;1720384;82;21306;-85
2022/11/09 09:29:55;;;;;;;24.37;17.37;;;;;;;12.91;82.29;100324.14;1720039;82;21065;-84
2022/11/09 09:32:22;;;;;;;22.25;15.70;;;;;;;12.94;82.20;100326.19;1719502;82;21119;-81
2022/11/09 09:34:49;;;;;;;25.15;16.55;;;;;;;12.99;82.09;100319.37;1720567;82;21033;-82
2022/11/09 09:37:17;;;;;;;25.02;16.20;;;;;;;13.03;82.01;100324.89;1718188;82;21042;-82
2022/11/09 09:39:44;;;;;;;25.32;16.95;;;;;;;13.08;81.87;100330.78;1717920;82;21073;-82
2022/11/09 09:42:18;;;;;;;22.93;16.27;;;;;;;13.12;81.63;100327.53;1716422;82;21294;-84
2022/11/09 09:44:59;;;;;;;22.22;16.07;;;;;;;13.14;81.53;100328.31;1720419;82;21141;-85
2022/11/09 09:47:47;;;;;;;22.22;15.72;;;;;;;13.20;81.51;100333.74;1720539;82;21074;-87
2022/11/09 09:50:25;;;;;;;23.98;16.30;;;;;;;13.29;81.50;100347.32;1718063;82;21082;-82
2022/11/09 09:53:04;;;;;;;22.42;15.68;;;;;;;13.31;81.13;100354.69;1720209;82;21245;-85
2022/11/09 09:55:38;;;;;;;22.80;16.75;;;;;;;13.37;81.07;100366.23;1715654;82;21047;-86
2022/11/09 09:58:28;;;;;;;22.65;16.05;;;;;;;13.51;80.92;100363.38;1719689;82;21796;-79
2022/11/09 10:01:06;;;;;;;26.73;18.48;;;;;;;13.73;80.87;100356.58;1718302;82;21098;-88
2022/11/09 10:03:33;;;;;;;23.45;18.23;;;;;;;14.09;80.58;100349.87;1715052;82;21101;-84
2022/11/09 10:06:09;;;;;;;26.65;18.25;;;;;;;14.36;80.27;100359.42;1715446;82;21011;-83
2022/11/09 10:09:07;;;;;;;25.57;18.85;;;;;;;14.59;80.11;100356.89;1709926;82;21077;-83
2022/11/09 10:11:45;;;;;;;25.88;18.50;;;;;;;14.82;79.51;100356.94;1702096;82;21929;-83
2022/11/09 10:14:43;;;;;;;27.37;19.00;;;;;;;14.75;78.55;100345.04;1699678;82;21065;-80
2022/11/09 10:17:24;;;;;;;25.60;18.70;;;;;;;14.75;78.55;100345.04;1695127;83;21134;-84
2022/11/09 10:20:33;;;;;;;22.95;17.95;;;;;;;14.73;78.25;100353.50;1692995;83;21066;-86
2022/11/09 10:23:21;;;;;;;24.80;18.87;;;;;;;14.66;78.00;100358.72;1693845;83;21062;-84
2022/11/09 10:25:56;;;;;;;22.85;16.95;;;;;;;14.58;77.69;100374.98;1697752;83;21119;-85
2022/11/09 10:28:27;;;;;;;23.83;17.60;;;;;;;14.58;77.69;100374.98;1671095;84;21066;-81
2022/11/09 10:30:57;;;;;;;25.43;17.50;;;;;;;14.60;77.60;100381.48;1693590;83;21050;-89
2022/11/09 10:33:26;;;;;;;;;;;;;;;14.63;77.55;100366.80;1681520;84;21038;-86
2022/11/09 10:36:03;;;;;;;21.68;15.78;;;;;;;14.73;77.42;100366.69;1693385;83;20625;-84
2022/11/09 10:38:36;;;;;;;23.77;16.25;;;;;;;14.97;77.53;100368.92;1683279;84;22143;-91
2022/11/09 10:41:45;;;;;;;19.82;15.93;;;;;;;15.08;77.16;100366.53;1696247;83;21093;-88
2022/11/09 10:44:31;;;;;;;24.97;17.77;;;;;;;15.08;77.16;100366.53;1693761;83;20954;-82
2022/11/09 10:47:17;;;;;;;30.12;20.60;;;;;;;15.17;77.07;100363.37;1673390;84;21057;-83
2022/11/09 10:50:25;;;;;;;28.40;22.13;;;;;;;15.25;76.83;100354.55;1693995;83;21055;-83
2022/11/09 10:53:21;;;;;;;28.75;20.48;;;;;;;15.46;76.27;100358.20;1693517;83;21161;-83
2022/11/09 10:56:20;;;;;;;22.95;17.77;;;;;;;15.53;75.89;100353.80;1674135;84;21062;-83
2022/11/09 10:59:30;;;;;;;21.17;17.17;;;;;;;15.52;75.64;100355.19;1702444;83;21498;-85
2022/11/09 11:02:28;;;;;;;21.30;17.32;;;;;;;15.50;75.14;100353.13;1700226;83;21026;-85
2022/11/09 11:05:24;;;;;;;23.25;17.75;;;;;;;15.44;74.87;100353.49;1697783;83;21053;-83
2022/11/09 11:08:27;;;;;;;23.20;17.77;;;;;;;15.36;74.96;100357.41;1707688;83;21300;-83
2022/11/09 11:11:29;;;;;;;24.30;17.70;;;;;;;15.36;74.96;100357.41;1708006;83;20938;-84
2022/11/09 11:14:33;;;;;;;23.83;18.60;;;;;;;15.79;75.01;100362.84;1700860;83;21049;-84
2022/11/09 11:17:30;;;;;;;23.38;18.25;;;;;;;16.18;74.83;100352.14;1687741;83;21066;-85
2022/11/09 11:20:34;;;;;;;22.37;17.92;;;;;;;16.99;74.27;100358.16;1689815;84;21805;-83
2022/11/09 11:23:25;;;;;;;23.50;18.12;;;;;;;17.71;73.48;100360.48;1701265;83;21092;-82
2022/11/09 11:26:37;;;;;;;22.65;17.62;;;;;;;17.84;72.38;100358.25;1722376;82;21542;-86
2022/11/09 11:29:56;;;;;;;19.73;16.73;;;;;;;17.74;71.85;100356.33;1689913;83;21606;-84
2022/11/09 11:32:41;;;;;;;19.55;16.90;;;;;;;18.14;71.83;100366.39;1717958;82;22101;-81
2022/11/09 11:35:58;;;;;;;18.95;16.27;;;;;;;18.69;70.55;100355.87;1701020;83;21062;-81
2022/11/09 11:38:57;;;;;;;18.60;16.52;;;;;;;19.04;70.68;100351.66;1722407;82;21153;-80